createdAt,value
2023-03-03T00:00:25.015Z,28.79
2023-03-03T00:01:24.998Z,28.81
2023-03-03T00:02:25.060Z,28.80
2023-03-03T00:03:25.034Z,28.81
2023-03-03T00:04:25.018Z,28.81
2023-03-03T00:05:25.032Z,28.82
2023-03-03T00:06:25.026Z,28.82
2023-03-03T00:07:25.031Z,28.82
2023-03-03T00:08:25.051Z,28.83
2023-03-03T00:09:25.033Z,28.82
2023-03-03T00:10:25.066Z,28.82
2023-03-03T00:11:25.039Z,28.83
2023-03-03T00:12:25.029Z,28.84
2023-03-03T00:13:25.042Z,28.84
2023-03-03T00:14:25.051Z,28.85
2023-03-03T00:15:25.068Z,28.85
2023-03-03T00:16:25.082Z,28.85
2023-03-03T00:17:25.018Z,28.86
2023-03-03T00:18:25.037Z,28.85
2023-03-03T00:19:25.066Z,28.84
2023-03-03T00:20:25.067Z,28.87
2023-03-03T00:21:25.063Z,28.87
2023-03-03T00:22:25.040Z,28.86
2023-03-03T00:23:25.047Z,28.87
2023-03-03T00:24:25.041Z,28.86
2023-03-03T00:25:25.050Z,28.85
2023-03-03T00:26:25.048Z,28.88
2023-03-03T00:27:25.037Z,28.91
2023-03-03T00:28:25.039Z,28.92
2023-03-03T00:29:25.033Z,28.92
2023-03-03T00:30:25.055Z,28.91
2023-03-03T00:31:25.090Z,28.92
2023-03-03T00:32:25.093Z,28.91
2023-03-03T00:33:25.048Z,28.92
2023-03-03T00:34:25.053Z,28.93
2023-03-03T00:35:25.117Z,28.92
2023-03-03T00:36:25.059Z,28.93
2023-03-03T00:37:25.065Z,28.92
2023-03-03T00:38:25.048Z,28.92
2023-03-03T00:39:25.040Z,28.94
2023-03-03T00:40:25.055Z,28.93
2023-03-03T00:41:25.055Z,28.93
2023-03-03T00:42:25.065Z,28.94
2023-03-03T00:43:25.070Z,28.94
2023-03-03T00:44:25.109Z,28.93
2023-03-03T00:45:25.049Z,28.92
2023-03-03T00:46:25.156Z,28.94
2023-03-03T00:47:25.059Z,28.96
2023-03-03T00:48:25.058Z,28.95
2023-03-03T00:49:25.065Z,28.97
2023-03-03T00:50:25.077Z,28.94
2023-03-03T00:51:25.106Z,28.95
2023-03-03T00:52:25.059Z,28.97
2023-03-03T00:53:25.069Z,28.97
2023-03-03T00:54:25.078Z,28.95
2023-03-03T00:55:25.074Z,28.98
2023-03-03T00:56:25.088Z,28.99
2023-03-03T00:57:25.065Z,29.00
2023-03-03T00:58:25.061Z,28.99
2023-03-03T00:59:25.066Z,28.99
2023-03-03T01:00:25.079Z,28.99
2023-03-03T01:01:25.157Z,28.98
2023-03-03T01:02:25.154Z,28.98
2023-03-03T01:03:25.098Z,28.98
2023-03-03T01:04:25.091Z,28.99
2023-03-03T01:05:25.084Z,28.98
2023-03-03T01:06:25.133Z,29.01
2023-03-03T01:07:25.087Z,29.02
2023-03-03T01:08:25.101Z,29.01
2023-03-03T01:09:25.079Z,29.01
2023-03-03T01:10:25.081Z,29.02
2023-03-03T01:11:25.101Z,29.00
2023-03-03T01:12:25.097Z,29.01
2023-03-03T01:13:25.098Z,29.03
2023-03-03T01:14:25.107Z,29.02
2023-03-03T01:15:25.119Z,29.02
2023-03-03T01:16:25.151Z,29.02
2023-03-03T01:17:25.137Z,29.01
2023-03-03T01:18:25.126Z,29.03
2023-03-03T01:19:25.143Z,29.03
2023-03-03T01:20:25.115Z,29.02
2023-03-03T01:21:25.147Z,29.06
2023-03-03T01:22:25.127Z,29.03
2023-03-03T01:23:25.133Z,29.06
2023-03-03T01:24:25.150Z,29.03
2023-03-03T01:25:25.164Z,29.07
2023-03-03T01:26:25.184Z,29.05
2023-03-03T01:27:25.138Z,29.08
2023-03-03T01:28:25.138Z,29.07
2023-03-03T01:29:25.146Z,29.07
2023-03-03T01:30:25.157Z,29.07
2023-03-03T01:31:25.272Z,29.07
2023-03-03T01:32:25.177Z,29.07
2023-03-03T01:33:25.148Z,29.06
2023-03-03T01:34:25.170Z,29.08
2023-03-03T01:35:25.236Z,29.09
2023-03-03T01:36:25.165Z,29.06
2023-03-03T01:37:25.176Z,29.06
2023-03-03T01:38:25.183Z,29.08
2023-03-03T01:39:25.189Z,29.07
2023-03-03T01:40:25.176Z,29.10
2023-03-03T01:41:25.174Z,29.08
2023-03-03T01:42:25.225Z,29.09
2023-03-03T01:43:25.180Z,29.10
2023-03-03T01:44:25.183Z,29.08
2023-03-03T01:45:25.201Z,29.14
2023-03-03T01:46:25.234Z,29.12
2023-03-03T01:47:25.224Z,29.11
2023-03-03T01:48:25.210Z,29.10
2023-03-03T01:49:25.230Z,29.14
2023-03-03T01:50:25.215Z,29.12
2023-03-03T01:51:25.250Z,29.12
2023-03-03T01:52:25.231Z,29.15
2023-03-03T01:53:25.242Z,29.16
2023-03-03T01:54:25.232Z,29.19
2023-03-03T01:55:25.225Z,29.15
2023-03-03T01:56:25.225Z,29.19
2023-03-03T01:57:25.250Z,29.15
2023-03-03T01:58:25.247Z,29.16
2023-03-03T01:59:25.249Z,29.14
2023-03-03T02:00:25.250Z,29.16
2023-03-03T02:01:25.316Z,29.15
2023-03-03T02:02:25.270Z,29.16
2023-03-03T02:03:25.264Z,29.17
2023-03-03T02:04:25.267Z,29.14
2023-03-03T02:05:25.276Z,29.17
2023-03-03T02:06:25.251Z,29.18
2023-03-03T02:07:25.326Z,29.16
2023-03-03T02:08:25.288Z,29.19
2023-03-03T02:09:25.288Z,29.20
2023-03-03T02:10:25.296Z,29.23
2023-03-03T02:11:25.314Z,29.20
2023-03-03T02:12:25.322Z,29.23
2023-03-03T02:13:25.328Z,29.20
2023-03-03T02:14:25.316Z,29.24
2023-03-03T02:15:25.348Z,29.23
2023-03-03T02:16:25.389Z,29.21
2023-03-03T02:17:25.361Z,29.18
2023-03-03T02:18:25.354Z,29.19
2023-03-03T02:19:25.353Z,29.23
2023-03-03T02:20:25.349Z,29.22
2023-03-03T02:21:25.343Z,29.22
2023-03-03T02:22:25.387Z,29.23
2023-03-03T02:23:25.356Z,29.23
2023-03-03T02:24:25.368Z,29.23
2023-03-03T02:25:25.377Z,29.22
2023-03-03T02:26:25.393Z,29.20
2023-03-03T02:27:25.422Z,29.21
2023-03-03T02:28:25.378Z,29.22
2023-03-03T02:29:25.407Z,29.20
2023-03-03T02:30:25.393Z,29.20
2023-03-03T02:31:25.467Z,29.21
2023-03-03T02:32:25.547Z,29.22
2023-03-03T02:33:25.396Z,29.23
2023-03-03T02:34:25.412Z,29.24
2023-03-03T02:35:25.478Z,29.22
2023-03-03T02:36:25.428Z,29.24
2023-03-03T02:37:25.410Z,29.26
2023-03-03T02:38:25.440Z,29.25
2023-03-03T02:39:25.411Z,29.28
2023-03-03T02:40:25.400Z,29.26
2023-03-03T02:41:25.422Z,29.25
2023-03-03T02:42:25.406Z,29.25
2023-03-03T02:43:25.437Z,29.25
2023-03-03T02:44:25.398Z,29.24
2023-03-03T02:45:25.462Z,29.24
2023-03-03T02:46:25.395Z,29.28
2023-03-03T02:47:25.426Z,29.26
2023-03-03T02:48:25.448Z,29.27
2023-03-03T02:49:25.394Z,29.25
2023-03-03T02:50:25.411Z,29.29
2023-03-03T02:51:25.412Z,29.28
2023-03-03T02:52:25.433Z,29.28
2023-03-03T02:53:25.440Z,29.28
2023-03-03T02:54:25.434Z,29.27
2023-03-03T02:55:25.444Z,29.32
2023-03-03T02:56:25.401Z,29.29
2023-03-03T02:57:25.445Z,29.28
2023-03-03T02:58:25.435Z,29.28
2023-03-03T02:59:25.413Z,29.29
2023-03-03T03:00:25.418Z,29.29
2023-03-03T03:01:25.455Z,29.27
2023-03-03T03:02:25.421Z,29.28
2023-03-03T03:03:25.424Z,29.31
2023-03-03T03:04:25.458Z,29.31
2023-03-03T03:05:25.419Z,29.29
2023-03-03T03:06:25.436Z,29.28
2023-03-03T03:07:25.462Z,29.29
2023-03-03T03:08:25.463Z,29.31
2023-03-03T03:09:25.446Z,29.30
2023-03-03T03:10:25.473Z,29.31
2023-03-03T03:11:25.472Z,29.32
2023-03-03T03:12:25.473Z,29.31
2023-03-03T03:13:25.489Z,29.30
2023-03-03T03:14:25.467Z,29.35
2023-03-03T03:15:25.478Z,29.33
2023-03-03T03:16:25.485Z,29.30
2023-03-03T03:17:25.481Z,29.30
2023-03-03T03:18:25.504Z,29.34
2023-03-03T03:19:29.129Z,29.33
2023-03-03T03:20:25.487Z,29.33
2023-03-03T03:21:25.489Z,29.34
2023-03-03T03:22:25.501Z,29.33
2023-03-03T03:23:25.517Z,29.35
2023-03-03T03:24:25.504Z,29.35
2023-03-03T03:25:25.521Z,29.34
2023-03-03T03:26:25.500Z,29.34
2023-03-03T03:27:25.509Z,29.35
2023-03-03T03:28:25.531Z,29.34
2023-03-03T03:29:25.528Z,29.32
2023-03-03T03:30:25.601Z,29.35
2023-03-03T03:31:25.525Z,29.36
2023-03-03T03:32:25.548Z,29.32
2023-03-03T03:33:25.512Z,29.37
2023-03-03T03:34:25.551Z,29.37
2023-03-03T03:35:25.553Z,29.34
2023-03-03T03:36:25.517Z,29.35
2023-03-03T03:37:25.537Z,29.32
2023-03-03T03:38:25.530Z,29.36
2023-03-03T03:39:25.558Z,29.32
2023-03-03T03:40:25.525Z,29.34
2023-03-03T03:41:25.554Z,29.35
2023-03-03T03:42:25.558Z,29.35
2023-03-03T03:43:25.547Z,29.41
2023-03-03T03:44:25.558Z,29.39
2023-03-03T03:45:25.518Z,29.35
2023-03-03T03:46:25.528Z,29.37
2023-03-03T03:47:25.537Z,29.36
2023-03-03T03:48:25.538Z,29.37
2023-03-03T03:49:25.561Z,29.38
2023-03-03T03:50:25.545Z,29.42
2023-03-03T03:51:25.565Z,29.39
2023-03-03T03:52:25.575Z,29.41
2023-03-03T03:53:25.556Z,29.40
2023-03-03T03:54:25.584Z,29.42
2023-03-03T03:55:25.602Z,29.39
2023-03-03T03:56:25.571Z,29.44
2023-03-03T03:57:26.679Z,29.40
2023-03-03T03:58:25.597Z,29.40
2023-03-03T03:59:25.648Z,29.42
2023-03-03T04:00:25.603Z,29.43
2023-03-03T04:01:25.610Z,29.43
2023-03-03T04:02:25.714Z,29.44
2023-03-03T04:03:25.677Z,29.42
2023-03-03T04:04:25.638Z,29.42
2023-03-03T04:05:25.615Z,29.44
2023-03-03T04:06:25.633Z,29.42
2023-03-03T04:07:25.618Z,29.41
2023-03-03T04:08:25.625Z,29.37
2023-03-03T04:09:25.642Z,29.39
2023-03-03T04:10:25.639Z,29.41
2023-03-03T04:11:25.637Z,29.43
2023-03-03T04:12:25.640Z,29.44
2023-03-03T04:13:25.680Z,29.40
2023-03-03T04:14:25.695Z,29.45
2023-03-03T04:15:25.741Z,29.43
2023-03-03T04:16:25.692Z,29.43
2023-03-03T04:17:25.684Z,29.42
2023-03-03T04:18:25.690Z,29.43
2023-03-03T04:19:25.736Z,29.42
2023-03-03T04:20:25.733Z,29.43
2023-03-03T04:21:25.757Z,29.46
2023-03-03T04:22:25.742Z,29.45
2023-03-03T04:23:25.773Z,29.44
2023-03-03T04:24:25.779Z,29.45
2023-03-03T04:25:25.749Z,29.45
2023-03-03T04:26:25.751Z,29.46
2023-03-03T04:27:25.775Z,29.45
2023-03-03T04:28:25.764Z,29.46
2023-03-03T04:29:25.796Z,29.46
2023-03-03T04:30:25.791Z,29.45
2023-03-03T04:31:25.870Z,29.45
2023-03-03T04:32:25.850Z,29.45
2023-03-03T04:33:25.812Z,29.46
2023-03-03T04:34:25.822Z,29.46
2023-03-03T04:35:25.858Z,29.50
2023-03-03T04:36:25.820Z,29.49
2023-03-03T04:37:25.822Z,29.46
2023-03-03T04:38:25.854Z,29.48
2023-03-03T04:39:25.826Z,29.48
2023-03-03T04:40:25.878Z,29.47
2023-03-03T04:41:25.836Z,29.49
2023-03-03T04:42:25.866Z,29.47
2023-03-03T04:43:25.865Z,29.49
2023-03-03T04:44:25.863Z,29.49
2023-03-03T04:45:25.876Z,29.52
2023-03-03T04:46:25.896Z,29.46
2023-03-03T04:47:25.907Z,29.47
2023-03-03T04:48:25.869Z,29.50
2023-03-03T04:49:25.879Z,29.48
2023-03-03T04:50:25.922Z,29.49
2023-03-03T04:51:25.896Z,29.47
2023-03-03T04:52:25.893Z,29.49
2023-03-03T04:53:25.896Z,29.52
2023-03-03T04:54:25.912Z,29.49
2023-03-03T04:55:25.911Z,29.50
2023-03-03T04:56:25.927Z,29.51
2023-03-03T04:57:25.913Z,29.51
2023-03-03T04:58:25.909Z,29.48
2023-03-03T04:59:25.917Z,29.53
2023-03-03T05:00:25.962Z,29.49
2023-03-03T05:01:25.907Z,29.51
2023-03-03T05:02:25.927Z,29.49
2023-03-03T05:03:25.943Z,29.52
2023-03-03T05:04:25.981Z,29.55
2023-03-03T05:05:25.968Z,29.52
2023-03-03T05:06:25.953Z,29.56
2023-03-03T05:07:25.969Z,29.56
2023-03-03T05:08:25.968Z,29.55
2023-03-03T05:09:25.993Z,29.56
2023-03-03T05:10:25.991Z,29.57
2023-03-03T05:11:25.989Z,29.51
2023-03-03T05:12:25.994Z,29.53
2023-03-03T05:13:25.986Z,29.52
2023-03-03T05:14:25.992Z,29.54
2023-03-03T05:15:26.043Z,29.51
2023-03-03T05:16:26.070Z,29.54
2023-03-03T05:17:26.027Z,29.53
2023-03-03T05:18:26.048Z,29.53
2023-03-03T05:19:26.040Z,29.53
2023-03-03T05:20:26.046Z,29.51
2023-03-03T05:21:26.050Z,29.52
2023-03-03T05:22:26.070Z,29.53
2023-03-03T05:23:26.063Z,29.54
2023-03-03T05:24:26.075Z,29.52
2023-03-03T05:25:26.097Z,29.55
2023-03-03T05:26:26.073Z,29.54
2023-03-03T05:27:26.097Z,29.58
2023-03-03T05:28:26.067Z,29.55
2023-03-03T05:29:26.089Z,29.54
2023-03-03T05:30:26.131Z,29.55
2023-03-03T05:31:26.187Z,29.55
2023-03-03T05:32:26.149Z,29.54
2023-03-03T05:33:26.123Z,29.55
2023-03-03T05:34:26.113Z,29.55
2023-03-03T05:35:26.188Z,29.56
2023-03-03T05:36:26.147Z,29.57
2023-03-03T05:37:26.149Z,29.54
2023-03-03T05:38:26.158Z,29.57
2023-03-03T05:39:26.165Z,29.55
2023-03-03T05:40:26.172Z,29.63
2023-03-03T05:41:26.176Z,29.58
2023-03-03T05:42:26.211Z,29.58
2023-03-03T05:43:26.160Z,29.56
2023-03-03T05:44:26.176Z,29.53
2023-03-03T05:45:26.217Z,29.55
2023-03-03T05:46:26.245Z,29.55
2023-03-03T05:47:26.210Z,29.54
2023-03-03T05:48:26.205Z,29.56
2023-03-03T05:49:26.205Z,29.59
2023-03-03T05:50:26.223Z,29.54
2023-03-03T05:51:26.236Z,29.57
2023-03-03T05:52:26.233Z,29.58
2023-03-03T05:53:26.211Z,29.56
2023-03-03T05:54:26.231Z,29.56
2023-03-03T05:55:26.234Z,29.62
2023-03-03T05:56:26.270Z,29.58
2023-03-03T05:57:26.242Z,29.61
2023-03-03T05:58:26.249Z,29.61
2023-03-03T05:59:26.255Z,29.61
2023-03-03T06:00:26.260Z,29.63
2023-03-03T06:01:26.351Z,29.63
2023-03-03T06:02:26.265Z,29.64
2023-03-03T06:03:26.286Z,29.64
2023-03-03T06:04:26.284Z,29.64
2023-03-03T06:05:26.250Z,29.63
2023-03-03T06:06:26.280Z,29.64
2023-03-03T06:07:26.269Z,29.66
2023-03-03T06:08:26.258Z,29.69
2023-03-03T06:09:26.266Z,29.65
2023-03-03T06:10:26.271Z,29.70
2023-03-03T06:11:26.267Z,29.64
2023-03-03T06:12:26.240Z,29.65
2023-03-03T06:13:26.255Z,29.67
2023-03-03T06:14:27.239Z,29.66
2023-03-03T06:15:26.275Z,29.68
2023-03-03T06:16:26.261Z,29.66
2023-03-03T06:17:26.265Z,29.68
2023-03-03T06:18:26.277Z,29.69
2023-03-03T06:19:26.252Z,29.69
2023-03-03T06:20:26.258Z,29.71
2023-03-03T06:21:26.259Z,29.70
2023-03-03T06:22:26.265Z,29.72
2023-03-03T06:23:26.256Z,29.70
2023-03-03T06:24:26.254Z,29.69
2023-03-03T06:25:26.259Z,29.68
2023-03-03T06:26:26.271Z,29.64
2023-03-03T06:27:26.273Z,29.65
2023-03-03T06:28:26.281Z,29.67
2023-03-03T06:29:26.280Z,29.68
2023-03-03T06:30:26.324Z,29.69
2023-03-03T06:31:26.373Z,30.39
2023-03-03T06:32:26.592Z,30.04
2023-03-03T06:33:28.415Z,30.24
2023-03-03T06:34:29.081Z,29.57
2023-03-03T06:35:32.124Z,27.49
2023-03-03T06:36:32.736Z,26.55
2023-03-03T06:37:28.263Z,26.50
2023-03-03T06:38:26.397Z,26.61
2023-03-03T06:39:26.930Z,26.52
2023-03-03T06:40:26.880Z,26.03
2023-03-03T06:41:26.464Z,26.54
2023-03-03T06:42:26.509Z,25.61
2023-03-03T06:43:26.569Z,25.54
2023-03-03T06:44:28.656Z,25.47
2023-03-03T06:45:26.546Z,25.53
2023-03-03T06:46:26.617Z,26.52
2023-03-03T06:47:26.665Z,25.46
2023-03-03T06:48:27.582Z,25.24
2023-03-03T06:49:27.268Z,25.85
2023-03-03T06:50:26.693Z,25.21
2023-03-03T06:51:26.720Z,25.26
2023-03-03T06:52:26.773Z,25.64
2023-03-03T06:53:26.788Z,26.47
2023-03-03T06:54:29.477Z,26.21
2023-03-03T06:55:26.821Z,26.16
2023-03-03T06:56:26.830Z,26.22
2023-03-03T06:57:26.858Z,26.52
2023-03-03T06:58:26.855Z,26.57
2023-03-03T06:59:26.901Z,26.77
2023-03-03T07:00:30.802Z,26.91
2023-03-03T07:01:29.602Z,27.17
2023-03-03T07:02:26.967Z,27.29
2023-03-03T07:03:26.965Z,27.18
2023-03-03T07:04:26.982Z,27.26
2023-03-03T07:05:26.993Z,27.28
2023-03-03T07:06:26.982Z,27.21
2023-03-03T07:07:27.016Z,27.36
2023-03-03T07:08:27.011Z,27.66
2023-03-03T07:09:27.037Z,27.95
2023-03-03T07:10:26.999Z,27.94
2023-03-03T07:11:26.958Z,28.09
2023-03-03T07:12:27.025Z,28.03
2023-03-03T07:13:26.994Z,28.44
2023-03-03T07:14:26.986Z,28.80
2023-03-03T07:15:26.990Z,28.82
2023-03-03T07:16:27.067Z,28.77
2023-03-03T07:17:27.033Z,28.42
2023-03-03T07:18:26.996Z,28.41
2023-03-03T07:19:26.989Z,28.51
2023-03-03T07:20:27.033Z,28.82
2023-03-03T07:21:26.959Z,28.98
2023-03-03T07:22:27.032Z,28.93
2023-03-03T07:23:27.006Z,28.87
2023-03-03T07:24:26.957Z,28.89
2023-03-03T07:25:26.976Z,28.88
2023-03-03T07:26:26.973Z,28.91
2023-03-03T07:27:26.989Z,29.02
2023-03-03T07:28:26.977Z,29.10
2023-03-03T07:29:26.976Z,29.11
2023-03-03T07:30:26.981Z,29.01
2023-03-03T07:31:28.053Z,29.04
2023-03-03T07:32:27.040Z,29.02
2023-03-03T07:33:26.970Z,29.13
2023-03-03T07:34:26.984Z,29.38
2023-03-03T07:35:27.008Z,29.19
2023-03-03T07:36:26.992Z,29.16
2023-03-03T07:37:26.994Z,29.35
2023-03-03T07:38:26.967Z,29.90
2023-03-03T07:39:26.968Z,29.50
2023-03-03T07:40:26.958Z,29.60
2023-03-03T07:41:26.957Z,30.22
2023-03-03T07:42:26.962Z,30.47
2023-03-03T07:43:26.939Z,30.19
2023-03-03T07:44:26.939Z,30.28
2023-03-03T07:45:26.942Z,30.12
2023-03-03T07:46:32.415Z,29.85
2023-03-03T07:47:31.780Z,30.33
2023-03-03T07:48:31.369Z,30.26
2023-03-03T07:49:31.817Z,30.60
2023-03-03T07:50:32.160Z,30.85
2023-03-03T07:51:29.369Z,30.73
2023-03-03T07:52:26.921Z,30.74
2023-03-03T07:53:26.933Z,30.68
2023-03-03T07:54:26.885Z,30.79
2023-03-03T07:55:26.880Z,30.69
2023-03-03T07:56:26.864Z,30.92
2023-03-03T07:57:26.887Z,31.14
2023-03-03T07:58:28.202Z,30.94
2023-03-03T07:59:26.875Z,31.17
2023-03-03T08:00:26.897Z,30.76
2023-03-03T08:01:26.823Z,31.07
2023-03-03T08:02:26.822Z,31.15
2023-03-03T08:03:26.927Z,31.36
2023-03-03T08:04:28.964Z,31.40
2023-03-03T08:05:29.264Z,31.32
2023-03-03T08:06:29.182Z,31.61
2023-03-03T08:07:28.737Z,31.39
2023-03-03T08:08:26.811Z,31.58
2023-03-03T08:09:28.854Z,31.67
2023-03-03T08:10:26.750Z,31.51
2023-03-03T08:11:26.746Z,31.49
2023-03-03T08:12:26.668Z,31.22
2023-03-03T08:13:26.658Z,32.03
2023-03-03T08:14:26.647Z,32.01
2023-03-03T08:15:26.656Z,32.15
2023-03-03T08:16:26.678Z,32.14
2023-03-03T08:17:26.570Z,31.63
2023-03-03T08:18:26.614Z,31.73
2023-03-03T08:19:26.555Z,32.16
2023-03-03T08:20:26.538Z,32.24
2023-03-03T08:21:26.550Z,32.11
2023-03-03T08:22:26.492Z,31.65
2023-03-03T08:23:26.496Z,31.89
2023-03-03T08:24:26.467Z,31.47
2023-03-03T08:25:26.426Z,31.31
2023-03-03T08:26:26.428Z,31.14
2023-03-03T08:27:26.525Z,30.48
2023-03-03T08:28:26.394Z,30.48
2023-03-03T08:29:26.375Z,30.30
2023-03-03T08:30:26.405Z,30.33
2023-03-03T08:32:26.429Z,30.01
2023-03-03T08:38:42.638Z,30.01
2023-03-03T08:52:33.750Z,29.72
2023-03-03T08:59:26.078Z,30.12
2023-03-03T10:08:33.316Z,27.89
2023-03-03T10:32:25.724Z,27.63
2023-03-03T10:33:25.779Z,27.72
2023-03-03T10:46:46.962Z,28.18
2023-03-03T11:38:44.767Z,28.76
2023-03-03T11:39:46.540Z,28.87
2023-03-03T11:40:44.131Z,28.37
2023-03-03T11:41:44.502Z,28.55
2023-03-03T11:42:44.031Z,28.99
2023-03-03T11:43:44.077Z,28.49
2023-03-03T11:44:44.018Z,28.98
2023-03-03T11:45:43.909Z,28.20
2023-03-03T11:46:43.851Z,28.43
2023-03-03T11:47:43.824Z,28.66
2023-03-03T11:48:44.548Z,28.80
2023-03-03T11:49:43.695Z,28.72
2023-03-03T11:50:43.657Z,28.74
2023-03-03T11:51:43.793Z,28.47
2023-03-03T11:52:43.574Z,28.54
2023-03-03T11:53:43.514Z,28.91
2023-03-03T11:54:44.032Z,28.63
2023-03-03T11:55:43.445Z,28.68
2023-03-03T11:56:43.396Z,28.71
2023-03-03T11:57:43.326Z,28.95
2023-03-03T11:58:43.994Z,28.90
2023-03-03T11:59:43.192Z,28.79
2023-03-03T12:00:43.133Z,29.03
2023-03-03T12:01:43.099Z,29.07
2023-03-03T12:02:43.120Z,29.11
2023-03-03T12:03:42.980Z,28.99
2023-03-03T12:04:42.899Z,28.78
2023-03-03T12:05:42.840Z,29.31
2023-03-03T12:06:42.775Z,29.47
2023-03-03T12:07:42.685Z,29.67
2023-03-03T12:08:42.640Z,30.11
2023-03-03T12:09:42.578Z,29.94
2023-03-03T12:10:42.509Z,29.89
2023-03-03T12:11:42.445Z,29.94
2023-03-03T12:12:42.993Z,30.13
2023-03-03T12:20:42.579Z,30.10
2023-03-03T14:33:33.838Z,30.79
2023-03-03T14:37:33.590Z,30.75
2023-03-03T14:38:33.563Z,30.75
2023-03-03T14:39:33.597Z,30.76
2023-03-03T14:40:33.465Z,30.73
2023-03-03T14:41:33.402Z,30.69
2023-03-03T14:42:33.331Z,30.67
2023-03-03T14:43:33.308Z,30.68
2023-03-03T14:44:33.262Z,30.68
2023-03-03T14:45:33.182Z,30.67
2023-03-03T14:46:33.157Z,30.69
2023-03-03T14:47:33.123Z,30.65
2023-03-03T14:48:33.049Z,30.68
2023-03-03T14:49:32.972Z,30.70
2023-03-03T14:50:32.908Z,30.67
2023-03-03T14:51:32.849Z,30.69
2023-03-03T14:52:32.821Z,30.68
2023-03-03T14:53:32.742Z,30.69
2023-03-03T14:54:34.470Z,30.63
2023-03-03T14:55:32.678Z,30.65
2023-03-03T14:56:32.603Z,30.62
2023-03-03T14:57:32.554Z,30.59
2023-03-03T14:58:32.484Z,30.58
2023-03-03T14:59:32.456Z,30.58
2023-03-03T15:00:34.616Z,30.56
2023-03-03T15:52:29.674Z,30.48
2023-03-03T15:53:29.598Z,30.49
2023-03-03T15:55:29.482Z,30.52
2023-03-03T15:56:29.446Z,30.50
2023-03-03T15:57:29.405Z,30.51
2023-03-03T15:58:29.447Z,30.51
2023-03-03T15:59:29.302Z,30.46
2023-03-03T16:01:29.224Z,30.48
2023-03-03T16:02:29.203Z,30.50
2023-03-03T16:06:29.076Z,30.47
2023-03-03T16:07:28.904Z,30.47
2023-03-03T16:08:28.841Z,30.46
2023-03-03T16:09:28.814Z,30.46
2023-03-03T16:11:28.719Z,30.47
2023-03-03T16:12:28.640Z,30.45
2023-03-03T16:13:28.593Z,30.44
2023-03-03T16:14:28.578Z,30.47
2023-03-03T16:16:28.528Z,30.47
2023-03-03T16:17:28.404Z,30.47
2023-03-03T16:18:28.365Z,30.46
2023-03-03T16:19:28.289Z,30.46
2023-03-03T16:20:28.252Z,30.48
2023-03-03T16:21:28.208Z,30.48
2023-03-03T16:22:28.161Z,30.49
2023-03-03T16:23:28.193Z,30.49
2023-03-03T16:24:28.077Z,30.47
2023-03-03T16:25:27.985Z,30.46
2023-03-03T16:26:27.953Z,30.46
2023-03-03T16:27:27.900Z,30.46
2023-03-03T16:28:27.830Z,30.45
2023-03-03T16:29:28.372Z,30.46
2023-03-03T16:30:27.762Z,30.44
2023-03-03T16:31:27.767Z,30.47
2023-03-03T16:32:27.697Z,30.46
2023-03-03T16:33:27.585Z,30.46
2023-03-03T16:34:27.553Z,30.47
2023-03-03T16:35:27.619Z,30.47
2023-03-03T16:36:27.442Z,30.46
2023-03-03T16:37:27.411Z,30.46
2023-03-03T16:38:27.360Z,30.47
2023-03-03T16:39:27.306Z,30.47
2023-03-03T16:40:27.268Z,30.48
2023-03-03T16:41:27.216Z,30.51
2023-03-03T16:42:27.169Z,30.52
2023-03-03T16:43:27.106Z,30.52
2023-03-03T16:44:27.067Z,30.51
2023-03-03T16:45:27.079Z,30.50
2023-03-03T16:49:26.804Z,30.48
2023-03-03T16:52:26.642Z,30.50
2023-03-03T16:53:26.733Z,30.48
2023-03-03T16:54:26.540Z,30.48
2023-03-03T16:55:26.494Z,30.50
2023-03-03T16:57:26.396Z,30.49
2023-03-03T16:59:26.277Z,30.48
2023-03-03T17:00:26.240Z,30.47
2023-03-03T17:01:26.215Z,30.49
2023-03-03T17:02:26.135Z,30.51
2023-03-03T17:03:26.101Z,30.49
2023-03-03T17:04:26.101Z,30.52
2023-03-03T17:05:25.991Z,30.50
2023-03-03T17:06:25.948Z,30.50
2023-03-03T17:07:25.926Z,30.50
2023-03-03T17:08:25.887Z,30.49
2023-03-03T17:09:32.594Z,30.51
2023-03-03T17:10:26.807Z,30.53
2023-03-03T17:11:25.728Z,30.51
2023-03-03T17:12:25.741Z,30.50
2023-03-03T17:13:25.619Z,30.50
2023-03-03T17:14:25.640Z,30.51
2023-03-03T17:15:25.545Z,30.54
2023-03-03T17:16:25.609Z,30.50
2023-03-03T17:19:25.340Z,30.51
2023-03-03T17:20:25.336Z,30.52
2023-03-03T17:21:25.358Z,30.50
2023-03-03T17:22:25.183Z,30.49
2023-03-03T17:23:25.225Z,30.49
2023-03-03T17:24:25.206Z,30.49
2023-03-03T17:25:25.071Z,30.49
2023-03-03T17:26:25.045Z,30.48
2023-03-03T17:27:24.971Z,30.49
2023-03-03T17:28:24.919Z,30.50
2023-03-03T17:29:24.877Z,30.50
2023-03-03T17:30:24.833Z,30.50
2023-03-03T17:31:24.802Z,30.49
2023-03-03T17:32:24.805Z,30.50
2023-03-03T17:33:24.706Z,30.50
2023-03-03T17:34:24.633Z,30.49
2023-03-03T17:35:24.585Z,30.48
2023-03-03T17:36:24.551Z,30.49
2023-03-03T17:37:24.499Z,30.49
2023-03-03T17:38:24.459Z,30.52
2023-03-03T17:39:24.399Z,30.47
2023-03-03T17:40:24.361Z,30.48
2023-03-03T17:41:24.302Z,30.49
2023-03-03T17:42:24.274Z,30.50
2023-03-03T17:43:24.221Z,30.48
2023-03-03T17:44:24.197Z,30.49
2023-03-03T17:45:24.125Z,30.48
2023-03-03T17:46:24.073Z,30.53
2023-03-03T17:47:24.063Z,30.48
2023-03-03T17:48:24.044Z,30.51
2023-03-03T17:49:23.966Z,30.50
2023-03-03T17:50:24.586Z,30.52
2023-03-03T17:51:23.866Z,30.49
2023-03-03T17:52:23.865Z,30.45
2023-03-03T17:53:23.789Z,30.47
2023-03-03T17:54:23.747Z,30.47
2023-03-03T17:55:23.689Z,30.48
2023-03-03T17:56:23.633Z,30.49
2023-03-03T17:57:23.659Z,30.49
2023-03-03T17:58:23.557Z,30.50
2023-03-03T17:59:23.523Z,30.52
2023-03-03T18:00:23.447Z,30.53
2023-03-03T18:01:23.378Z,30.52
2023-03-03T18:02:23.329Z,30.52
2023-03-03T18:03:23.364Z,30.53
2023-03-03T18:04:23.286Z,30.53
2023-03-03T18:05:23.236Z,30.55
2023-03-03T18:06:23.144Z,30.52
2023-03-03T18:07:23.595Z,30.53
2023-03-03T18:08:23.042Z,30.53
2023-03-03T18:09:22.989Z,30.53
2023-03-03T18:10:22.946Z,30.52
2023-03-03T18:11:22.930Z,30.53
2023-03-03T18:12:22.843Z,30.52
2023-03-03T18:13:22.816Z,30.52
2023-03-03T18:14:22.898Z,30.53
2023-03-03T18:15:23.604Z,30.51
2023-03-03T18:16:22.751Z,30.52
2023-03-03T18:17:22.604Z,30.52
2023-03-03T18:18:22.567Z,30.53
2023-03-03T18:19:22.519Z,30.51
2023-03-03T18:20:22.501Z,30.55
2023-03-03T18:21:22.448Z,30.50
2023-03-03T18:22:22.365Z,30.51
2023-03-03T20:42:15.918Z,30.25
2023-03-03T20:43:15.844Z,30.23
2023-03-03T20:44:15.793Z,30.23
2023-03-03T20:45:15.798Z,30.21
2023-03-03T20:46:15.851Z,30.21
2023-03-03T20:47:15.692Z,30.21
2023-03-03T20:48:15.648Z,30.19
2023-03-03T20:49:15.619Z,30.19
2023-03-03T20:50:15.626Z,30.17
2023-03-03T20:51:15.560Z,30.18
2023-03-03T20:52:15.474Z,30.19
2023-03-03T20:53:15.466Z,30.13
2023-03-03T20:54:15.421Z,30.15
2023-03-03T20:55:15.356Z,30.19
2023-03-03T20:56:15.335Z,30.14
2023-03-03T20:57:15.278Z,30.18
2023-03-03T20:58:15.233Z,30.15
2023-03-03T20:59:15.200Z,30.16
2023-03-03T21:00:15.151Z,30.12
2023-03-03T21:01:15.138Z,30.15
2023-03-03T21:02:15.079Z,30.12
2023-03-03T21:03:15.034Z,30.15
2023-03-03T21:04:15.157Z,30.13
2023-03-03T21:05:14.958Z,30.15
2023-03-03T21:06:14.890Z,30.14
2023-03-03T21:07:14.893Z,30.16
2023-03-03T21:08:14.832Z,30.15
2023-03-03T21:09:14.759Z,30.12
2023-03-03T21:10:14.749Z,30.16
2023-03-03T21:11:14.667Z,30.12
2023-03-03T21:12:14.653Z,30.10
2023-03-03T21:13:14.604Z,30.05
2023-03-03T21:14:14.567Z,30.09
2023-03-03T21:15:14.527Z,30.10
2023-03-03T21:16:14.512Z,30.11
2023-03-03T21:17:14.443Z,30.07
2023-03-03T21:18:14.394Z,30.08
2023-03-03T21:19:14.371Z,30.07
2023-03-03T21:20:14.319Z,30.08
2023-03-03T21:21:14.311Z,30.05
2023-03-03T21:22:14.235Z,30.10
2023-03-03T21:23:14.222Z,30.05
2023-03-03T21:24:14.147Z,30.03
2023-03-03T21:25:14.142Z,30.02
2023-03-03T21:26:14.073Z,30.07
2023-03-03T21:27:14.043Z,30.05
2023-03-03T21:28:13.988Z,30.06
2023-03-03T21:29:13.965Z,30.04
2023-03-03T21:30:13.904Z,30.04
2023-03-03T21:31:13.846Z,29.99
2023-03-03T21:32:14.045Z,29.98
2023-03-03T21:33:13.776Z,29.99
2023-03-03T21:34:13.715Z,30.01
2023-03-03T21:35:13.685Z,30.01
2023-03-03T21:36:13.639Z,30.03
2023-03-03T21:37:13.628Z,30.01
2023-03-03T21:38:13.560Z,29.97
2023-03-03T21:39:13.505Z,30.01